Startpagina
METAR-TAF:

METAR-TAF

Vliegvelden :

London City Airport

Londen, Engeland

breedte: 51-30N, lengte: 000-03E, hoogte: 5 m

Actueel weer

Dit bericht is 34 minuten geleden gemaakt, om 03:20 UTC
Wind 3 kt uit variabele richting
Temperatuur 14°C
Vochtigheid 72%
Druk 1021 hPa
Zicht 10 km of meer

METAR: EGLC 020320Z AUTO VRB03KT 9999 NCD 14/09 Q1021

Tijdstip: 04:54 (03:54 UTC)

Verwachting

Dit bericht is 1 uur en het 46 minuten geleden gemaakt, om 02:08 UTC
Verwachting geldig van 02 om 03 UTC tot 02 om 12 UTC
Wind 7 kt uit het noordnoordoosten
Zicht 10 km of meer
geen wolken onder 1500 m en geen cumulonimbus

TAF: EGLC 020208Z 0203/0212 02007KT CAVOK

Waarnemingen en weersverwachtingen van meer dan 4000 vliegvelden (METAR en TAF).

De beschikbare stations zijn de gele en rode punten op de kaart.

Ga met uw muis naar het station om de naam te zien.

Klik dan om waarnemingen en weersverwachtingen te zien.

kaart wijzigen: klik op de groene knoppen met een zwart kruis om in te zoomen, op de groene knop met een streepje om uit te zoomen of op de groene pijlen voor aangrenzende kaarten.


METAR-TAF: